Time;durP1;ratioP1;P1;durP2;ratioP2;P2;SDS_P1;SDS_P2;PMS_P1;PMS_P2;Temp;Humidity;BMP_temperature;BMP_pressure;BME280_temperature;BME280_humidity;BME280_pressure;Samples;Min_cycle;Max_cycle;Signal;HPM_P1;HPM_P2
2022/02/03 00:00:42;;;;;;;8.43;3.28;;;10.90;74.80;;;;;;5035657;28;20029;-78
2022/02/03 00:03:24;;;;;;;8.23;3.40;;;10.90;74.80;;;;;;5053761;28;20371;-77
2022/02/03 00:06:00;;;;;;;11.57;3.92;;;10.90;74.90;;;;;;5035751;28;20021;-77
2022/02/03 00:11:29;;;;;;;10.65;4.38;;;10.90;75.50;;;;;;5053112;28;20036;-77
2022/02/03 00:16:56;;;;;;;12.30;3.92;;;10.90;75.10;;;;;;5053397;28;20027;-78
2022/02/03 00:22:47;;;;;;;12.32;3.88;;;10.90;75.20;;;;;;5052997;28;20072;-77
2022/02/03 00:25:29;;;;;;;11.52;4.78;;;10.90;75.30;;;;;;5035331;28;20037;-77
2022/02/03 00:28:03;;;;;;;11.80;4.38;;;10.80;75.30;;;;;;5053277;28;20033;-78
2022/02/03 00:33:12;;;;;;;11.40;4.50;;;10.90;75.40;;;;;;5053302;28;20060;-75
2022/02/03 00:36:02;;;;;;;11.10;4.30;;;10.90;75.40;;;;;;5052925;28;20031;-77
2022/02/03 00:49:37;;;;;;;12.43;4.68;;;10.80;75.50;;;;;;5052880;28;20040;-75
2022/02/03 00:52:03;;;;;;;11.32;4.90;;;10.90;75.60;;;;;;5052068;28;20021;-75
2022/02/03 00:54:32;;;;;;;10.93;4.90;;;10.80;75.70;;;;;;5034674;28;20029;-75
2022/02/03 00:57:07;;;;;;;11.48;4.35;;;10.80;75.70;;;;;;5034909;28;20024;-75
2022/02/03 00:59:38;;;;;;;12.63;5.18;;;10.90;75.80;;;;;;5015217;28;20453;-75
2022/02/03 01:02:11;;;;;;;12.73;5.65;;;10.80;75.80;;;;;;5042821;28;20021;-75
2022/02/03 01:04:39;;;;;;;12.63;5.40;;;10.80;75.80;;;;;;5051418;28;20122;-75
2022/02/03 01:07:12;;;;;;;10.05;5.25;;;10.80;75.80;;;;;;5052500;28;20041;-75
2022/02/03 01:09:45;;;;;;;12.15;5.68;;;10.80;75.90;;;;;;5046240;28;20371;-75
2022/02/03 01:12:27;;;;;;;12.50;5.28;;;10.80;76.40;;;;;;5050999;28;20120;-76
2022/02/03 01:17:44;;;;;;;11.85;6.03;;;10.80;76.00;;;;;;5052457;28;20027;-75
2022/02/03 01:45:03;;;;;;;14.18;7.75;;;10.80;76.40;;;;;;5052096;28;20052;-75
2022/02/03 01:47:50;;;;;;;14.10;7.75;;;10.90;76.40;;;;;;5038982;28;20033;-75
2022/02/03 01:52:50;;;;;;;15.32;7.93;;;10.90;76.60;;;;;;5052366;28;20064;-76
2022/02/03 01:55:21;;;;;;;13.90;7.53;;;10.80;76.60;;;;;;5051824;28;20436;-75
2022/02/03 01:58:03;;;;;;;14.68;7.75;;;10.90;76.70;;;;;;5052008;28;20021;-76
2022/02/03 02:00:37;;;;;;;15.10;7.57;;;10.80;76.60;;;;;;5049857;28;20028;-75
2022/02/03 02:03:09;;;;;;;15.18;7.85;;;10.80;76.60;;;;;;5054558;28;20033;-75
2022/02/03 02:05:53;;;;;;;12.73;7.63;;;10.80;76.70;;;;;;5054667;28;20025;-76
2022/02/03 02:08:45;;;;;;;13.13;7.28;;;10.80;76.70;;;;;;5054872;28;20032;-75
2022/02/03 02:11:53;;;;;;;14.27;7.40;;;10.80;76.80;;;;;;5055357;28;20025;-74
2022/02/03 02:17:57;;;;;;;12.23;6.73;;;10.80;76.80;;;;;;5055903;28;20501;-75
2022/02/03 02:36:49;;;;;;;12.93;6.95;;;10.80;76.80;;;;;;5054571;28;20091;-74
2022/02/03 02:39:34;;;;;;;12.77;7.53;;;10.80;77.00;;;;;;5055344;28;20017;-75
2022/02/03 02:44:55;;;;;;;12.32;7.57;;;10.80;77.10;;;;;;5055329;28;20033;-75
2022/02/03 02:47:28;;;;;;;13.00;6.82;;;10.80;77.10;;;;;;5048153;28;20398;-75
2022/02/03 02:50:07;;;;;;;13.60;7.45;;;10.80;77.10;;;;;;5053108;28;20029;-73
2022/02/03 02:52:46;;;;;;;11.43;6.97;;;10.80;77.10;;;;;;5053897;28;20032;-76
2022/02/03 02:58:28;;;;;;;12.75;6.90;;;10.80;77.20;;;;;;5046295;28;20017;-75
2022/02/03 03:04:09;;;;;;;11.85;6.82;;;10.80;77.30;;;;;;5054978;28;20032;-75
2022/02/03 03:34:42;;;;;;;13.25;8.05;;;10.80;77.60;;;;;;5054017;28;20060;-77
2022/02/03 03:37:16;;;;;;;13.27;8.05;;;10.80;77.60;;;;;;5052643;28;20025;-75
2022/02/03 03:39:47;;;;;;;12.30;7.68;;;10.90;77.80;;;;;;5052929;28;20048;-78
2022/02/03 03:42:17;;;;;;;14.32;7.82;;;10.80;77.70;;;;;;5045209;28;20025;-74
2022/02/03 03:44:43;;;;;;;14.73;8.63;;;10.80;77.80;;;;;;5053653;28;20033;-76
2022/02/03 03:47:14;;;;;;;14.63;8.98;;;10.80;77.80;;;;;;5053941;28;20029;-77
2022/02/03 03:49:45;;;;;;;15.27;8.88;;;10.80;77.90;;;;;;5039672;28;20021;-77
2022/02/03 03:52:18;;;;;;;13.55;8.95;;;10.80;78.00;;;;;;5052158;28;20044;-77
2022/02/03 03:55:25;;;;;;;14.15;9.18;;;10.80;78.00;;;;;;5035899;28;20083;-76
2022/02/03 04:28:56;;;;;;;15.45;9.25;;;10.80;78.10;;;;;;5053464;28;20474;-77
2022/02/03 04:51:53;;;;;;;14.70;9.65;;;10.80;78.60;;;;;;5052733;28;20132;-74
2022/02/03 05:06:52;;;;;;;15.88;10.20;;;10.80;78.90;;;;;;5047125;28;20025;-74
2022/02/03 05:12:54;;;;;;;15.07;9.50;;;10.80;78.90;;;;;;5032284;28;19912;-74
2022/02/03 05:25:22;;;;;;;16.98;10.82;;;10.80;79.10;;;;;;5031472;28;20060;-72
2022/02/03 05:43:36;;;;;;;18.08;11.88;;;10.80;79.30;;;;;;5041220;28;20649;-73
2022/02/03 05:51:47;;;;;;;17.67;11.82;;;10.80;79.30;;;;;;5052115;28;20468;-72
2022/02/03 05:54:46;;;;;;;18.90;12.18;;;10.80;79.40;;;;;;5052535;28;20090;-73
2022/02/03 06:03:13;;;;;;;19.17;13.13;;;10.80;79.50;;;;;;5052154;28;20052;-72
2022/02/03 06:09:03;;;;;;;19.27;12.85;;;10.80;80.10;;;;;;5010809;28;20036;-73
2022/02/03 06:14:20;;;;;;;19.30;13.52;;;10.80;79.60;;;;;;5051430;28;20126;-73
2022/02/03 06:22:42;;;;;;;20.67;14.10;;;10.80;79.60;;;;;;5051467;28;20555;-72
2022/02/03 06:27:44;;;;;;;22.42;14.10;;;10.80;79.40;;;;;;5052423;28;20478;-73
2022/02/03 06:30:13;;;;;;;24.30;13.95;;;10.80;79.70;;;;;;5052407;28;20021;-75
2022/02/03 06:32:40;;;;;;;23.27;14.52;;;10.80;79.90;;;;;;5033402;28;20490;-75
2022/02/03 06:35:07;;;;;;;42.85;16.73;;;10.80;79.90;;;;;;5051508;28;20080;-72
2022/02/03 06:37:33;;;;;;;45.05;17.30;;;10.80;79.90;;;;;;5051498;28;20021;-74
2022/02/03 06:39:58;;;;;;;43.55;16.45;;;10.80;80.00;;;;;;5033176;28;20051;-72
2022/02/03 06:42:25;;;;;;;37.33;16.65;;;10.80;80.00;;;;;;5033408;28;20017;-73
2022/02/03 06:44:55;;;;;;;35.63;16.42;;;10.80;80.10;;;;;;5051051;28;20523;-73
2022/02/03 06:47:33;;;;;;;32.10;15.45;;;10.80;80.20;;;;;;5051613;28;20029;-72
2022/02/03 06:50:19;;;;;;;36.22;16.13;;;10.80;80.20;;;;;;5033088;28;20029;-73
2022/02/03 06:52:52;;;;;;;42.42;16.13;;;10.80;80.30;;;;;;5033383;28;20028;-73
2022/02/03 06:55:39;;;;;;;37.75;16.70;;;10.80;80.40;;;;;;5033380;28;20425;-75
2022/02/03 07:01:11;;;;;;;32.65;16.70;;;10.80;80.60;;;;;;5051293;28;20083;-72
2022/02/03 07:03:40;;;;;;;32.70;16.25;;;10.80;80.60;;;;;;5030850;28;20013;-73
2022/02/03 07:06:06;;;;;;;34.15;17.48;;;10.80;80.70;;;;;;5012714;28;20040;-75
2022/02/03 07:08:33;;;;;;;31.02;16.33;;;10.80;80.70;;;;;;5012032;28;20295;-72
2022/02/03 07:11:01;;;;;;;33.08;16.25;;;10.70;80.70;;;;;;5027472;28;20060;-71
2022/02/03 07:13:26;;;;;;;31.67;16.27;;;10.70;80.60;;;;;;5029061;28;20025;-75
2022/02/03 07:15:52;;;;;;;32.13;17.20;;;10.80;80.70;;;;;;5026871;28;20032;-72
2022/02/03 07:18:18;;;;;;;31.02;17.40;;;10.70;80.70;;;;;;5028980;28;20052;-76
2022/02/03 07:20:44;;;;;;;35.25;16.88;;;10.80;80.80;;;;;;5028593;28;20084;-72
2022/02/03 07:23:09;;;;;;;33.47;18.48;;;10.70;80.90;;;;;;5028888;28;20406;-72
2022/02/03 07:25:36;;;;;;;31.83;16.80;;;10.80;81.00;;;;;;5027879;28;20029;-73
2022/02/03 07:28:02;;;;;;;30.70;17.42;;;10.80;81.00;;;;;;5028768;28;20088;-75
2022/02/03 07:30:29;;;;;;;31.77;18.42;;;10.80;81.00;;;;;;5028556;28;20033;-72
2022/02/03 07:32:56;;;;;;;28.45;16.35;;;10.80;81.70;;;;;;5010711;28;20556;-72
2022/02/03 07:35:22;;;;;;;33.95;17.98;;;10.80;81.20;;;;;;5010752;28;20056;-72
2022/02/03 07:37:49;;;;;;;27.92;15.93;;;10.70;81.20;;;;;;5028610;28;20483;-73
2022/02/03 07:40:16;;;;;;;29.50;16.25;;;10.70;81.30;;;;;;5009914;28;20030;-71
2022/02/03 07:42:45;;;;;;;29.33;16.60;;;10.70;81.30;;;;;;5010868;28;20103;-73
2022/02/03 07:45:10;;;;;;;27.55;16.17;;;10.70;81.30;;;;;;5027409;28;20680;-72
2022/02/03 07:47:46;;;;;;;25.70;16.10;;;10.70;81.30;;;;;;5010627;28;20061;-73
2022/02/03 07:50:14;;;;;;;25.77;16.00;;;10.70;81.40;;;;;;5010348;28;20048;-72
2022/02/03 07:52:40;;;;;;;21.58;15.02;;;10.70;81.50;;;;;;5028387;28;20029;-72
2022/02/03 07:55:06;;;;;;;25.90;15.30;;;10.80;81.60;;;;;;5010688;28;20032;-72
2022/02/03 07:57:33;;;;;;;25.63;16.02;;;10.70;81.60;;;;;;5010381;28;20053;-73
2022/02/03 07:59:58;;;;;;;23.30;14.93;;;10.70;81.60;;;;;;5026906;28;20029;-73
2022/02/03 08:02:24;;;;;;;23.67;14.55;;;10.70;81.60;;;;;;5010330;28;20109;-72
2022/02/03 08:04:51;;;;;;;26.67;15.95;;;10.70;81.70;;;;;;5028268;28;20033;-75
2022/02/03 08:07:19;;;;;;;22.15;15.27;;;10.70;81.70;;;;;;5010692;28;20025;-73
2022/02/03 08:10:16;;;;;;;21.75;14.60;;;10.70;81.80;;;;;;5010378;28;20541;-72
2022/02/03 08:12:36;;;;;;;20.88;14.77;;;10.70;81.90;;;;;;5027734;28;20452;-73
2022/02/03 08:15:02;;;;;;;24.98;14.98;;;10.70;81.90;;;;;;5009880;28;20032;-72
2022/02/03 08:17:36;;;;;;;21.00;14.75;;;10.70;81.90;;;;;;5010169;28;20033;-74
2022/02/03 08:20:10;;;;;;;22.23;15.27;;;10.70;82.00;;;;;;5009793;28;20249;-71
2022/02/03 08:22:42;;;;;;;20.50;14.43;;;10.70;82.00;;;;;;5010287;28;20094;-74
2022/02/03 08:25:16;;;;;;;;;;;10.70;82.10;;;;;;5028767;28;20039;-72
2022/02/03 08:30:27;;;;;;;18.45;14.02;;;10.70;82.10;;;;;;5027332;28;20748;-75
2022/02/03 08:33:00;;;;;;;21.50;14.55;;;10.70;82.20;;;;;;5009905;28;20083;-72
2022/02/03 08:35:35;;;;;;;22.40;14.85;;;10.80;82.40;;;;;;5010125;28;20028;-71
2022/02/03 08:43:11;;;;;;;19.45;14.25;;;10.70;82.30;;;;;;5027890;28;20091;-73
2022/02/03 08:45:37;;;;;;;21.73;14.93;;;10.70;82.30;;;;;;5009846;28;20033;-72
2022/02/03 08:48:03;;;;;;;21.55;15.18;;;10.80;82.30;;;;;;5027299;28;20060;-74
2022/02/03 08:50:29;;;;;;;19.92;14.60;;;10.70;82.40;;;;;;5027150;28;20036;-72
2022/02/03 09:34:35;;;;;;;;;;;10.70;82.60;;;;;;5027728;28;20456;-72
2022/02/03 09:36:36;;;;;;;18.88;13.02;;;10.70;82.60;;;;;;5026778;28;19963;-72
2022/02/03 09:50:01;;;;;;;16.75;13.27;;;10.70;82.60;;;;;;5026755;28;20057;-72
2022/02/03 09:55:11;;;;;;;;;;;10.70;82.60;;;;;;5027413;28;20029;-71
2022/02/03 10:00:40;;;;;;;15.27;11.15;;;10.70;82.40;;;;;;5026299;28;20033;-71
2022/02/03 10:03:12;;;;;;;15.55;11.15;;;10.70;82.50;;;;;;5026712;28;20021;-72
2022/02/03 10:06:12;;;;;;;14.25;10.65;;;10.70;82.60;;;;;;5025558;28;20029;-72
2022/02/03 10:08:49;;;;;;;14.50;10.73;;;10.70;82.50;;;;;;5025505;28;20376;-72
2022/02/03 10:11:26;;;;;;;14.00;10.25;;;10.70;82.60;;;;;;5008463;28;20065;-72
2022/02/03 10:13:54;;;;;;;14.07;10.05;;;10.70;82.50;;;;;;5026391;28;20091;-72
2022/02/03 10:16:26;;;;;;;12.75;10.10;;;10.70;82.60;;;;;;5008580;28;20558;-72
2022/02/03 10:19:11;;;;;;;;;;;10.70;82.60;;;;;;5026933;28;20508;-71
2022/02/03 10:21:36;;;;;;;13.40;9.40;;;10.80;82.60;;;;;;5029744;28;19905;-73
2022/02/03 10:24:06;;;;;;;14.25;9.65;;;10.70;82.50;;;;;;5030082;28;20041;-73
2022/02/03 10:26:46;;;;;;;14.18;9.98;;;10.70;82.50;;;;;;5030065;28;20107;-75
2022/02/03 10:29:14;;;;;;;12.52;9.25;;;10.70;82.50;;;;;;5028652;28;20036;-75
2022/02/03 10:31:43;;;;;;;12.57;9.55;;;10.70;82.60;;;;;;5028530;28;20033;-71
2022/02/03 10:34:12;;;;;;;12.98;9.98;;;10.70;82.60;;;;;;5030103;28;20026;-71
2022/02/03 10:36:56;;;;;;;13.55;9.13;;;10.70;82.60;;;;;;5028731;28;20116;-71
2022/02/03 10:42:50;;;;;;;11.65;8.43;;;10.70;82.60;;;;;;5029993;28;20018;-72
2022/02/03 10:56:37;;;;;;;11.32;8.30;;;10.70;82.60;;;;;;5029590;28;20111;-72
2022/02/03 11:02:07;;;;;;;12.70;9.20;;;10.70;82.60;;;;;;5029489;28;20138;-72
2022/02/03 11:04:29;;;;;;;11.88;8.68;;;10.70;82.70;;;;;;5021299;28;20061;-72
2022/02/03 11:07:01;;;;;;;12.00;9.02;;;10.70;82.70;;;;;;5029452;28;20398;-72
2022/02/03 11:09:44;;;;;;;12.65;9.40;;;10.70;82.70;;;;;;5029143;28;20025;-71
2022/02/03 11:12:16;;;;;;;12.52;9.27;;;10.70;82.70;;;;;;5027679;28;20108;-72
2022/02/03 11:14:43;;;;;;;12.63;8.57;;;10.70;82.80;;;;;;5027726;28;20083;-72
2022/02/03 11:17:09;;;;;;;11.52;8.55;;;10.70;82.80;;;;;;5027848;28;20022;-72
2022/02/03 11:19:37;;;;;;;11.38;8.57;;;10.70;82.80;;;;;;5028372;28;20120;-72
2022/02/03 11:22:08;;;;;;;11.00;8.25;;;10.70;82.80;;;;;;5028770;28;20025;-72
2022/02/03 11:24:38;;;;;;;11.32;8.23;;;10.70;82.80;;;;;;5028835;28;20052;-73
2022/02/03 11:27:34;;;;;;;11.80;8.70;;;10.70;82.80;;;;;;5029058;28;20026;-73
2022/02/03 11:30:49;;;;;;;12.40;8.07;;;10.70;82.90;;;;;;5028655;28;20344;-72
2022/02/03 11:37:13;;;;;;;11.68;9.15;;;10.70;82.80;;;;;;5029088;28;20064;-73
2022/02/03 11:50:20;;;;;;;11.23;8.05;;;10.70;83.00;;;;;;5028696;28;20053;-73
2022/02/03 11:56:00;;;;;;;11.48;8.18;;;10.70;83.00;;;;;;5028736;28;20061;-72
2022/02/03 12:17:26;;;;;;;10.75;8.00;;;10.70;83.20;;;;;;5028163;28;20083;-73
2022/02/03 12:20:08;;;;;;;11.20;8.05;;;10.70;83.20;;;;;;5028239;28;20547;-72
2022/02/03 12:22:54;;;;;;;11.63;8.70;;;10.70;83.20;;;;;;5026600;28;20037;-74
2022/02/03 12:25:38;;;;;;;11.60;8.20;;;10.70;83.10;;;;;;5026705;28;20043;-72
2022/02/03 12:39:21;;;;;;;11.57;8.40;;;10.70;83.20;;;;;;5027511;28;20505;-72
2022/02/03 12:42:01;;;;;;;11.95;8.82;;;10.70;83.30;;;;;;5026887;28;20929;-72
2022/02/03 12:44:29;;;;;;;11.23;8.88;;;10.70;83.20;;;;;;5026155;28;20030;-73
2022/02/03 12:47:02;;;;;;;11.05;8.48;;;10.60;83.30;;;;;;5026296;28;20029;-72
2022/02/03 12:49:29;;;;;;;10.82;8.52;;;10.60;83.30;;;;;;5026328;28;20057;-73
2022/02/03 12:51:56;;;;;;;10.32;8.25;;;10.60;83.20;;;;;;5025770;28;20453;-73
2022/02/03 12:54:21;;;;;;;10.73;8.35;;;10.70;83.30;;;;;;5027095;28;20065;-72
2022/02/03 12:56:47;;;;;;;12.43;9.50;;;10.60;83.20;;;;;;5027487;28;20107;-72
2022/02/03 12:59:16;;;;;;;11.45;8.95;;;10.60;83.30;;;;;;5025780;28;20063;-72
2022/02/03 13:01:44;;;;;;;11.25;8.63;;;10.60;83.30;;;;;;5026104;28;20052;-77
2022/02/03 13:04:13;;;;;;;11.02;8.80;;;10.60;83.40;;;;;;5028031;28;20029;-74
2022/02/03 13:06:44;;;;;;;12.02;9.30;;;10.70;83.50;;;;;;5026437;28;20368;-72
2022/02/03 13:09:11;;;;;;;11.73;9.10;;;10.60;83.40;;;;;;5026460;28;20018;-73
2022/02/03 13:11:50;;;;;;;13.18;9.10;;;10.60;83.30;;;;;;5027256;28;20490;-73
2022/02/03 13:16:51;;;;;;;12.05;8.90;;;10.70;83.30;;;;;;5028010;28;20037;-74
2022/02/03 13:20:05;;;;;;;15.07;9.45;;;10.70;83.40;;;;;;5026906;28;20025;-74
2022/02/03 13:22:18;;;;;;;14.45;9.32;;;10.70;83.40;;;;;;5016617;28;20037;-76
2022/02/03 13:28:02;;;;;;;14.18;9.15;;;10.70;83.60;;;;;;4993962;28;20090;-73
2022/02/03 13:30:28;;;;;;;12.07;9.13;;;10.60;83.50;;;;;;5027361;28;20017;-74
2022/02/03 13:32:58;;;;;;;13.18;9.40;;;10.70;83.60;;;;;;5026184;28;20498;-73
2022/02/03 13:35:42;;;;;;;11.85;8.98;;;10.70;83.70;;;;;;5026146;28;20391;-73
2022/02/03 13:38:20;;;;;;;13.15;9.40;;;10.70;83.70;;;;;;5026194;28;20021;-74
2022/02/03 13:40:45;;;;;;;11.73;8.95;;;10.70;83.70;;;;;;5025802;28;20029;-74
2022/02/03 13:43:13;;;;;;;12.00;9.38;;;10.60;83.70;;;;;;5027384;28;20664;-73
2022/02/03 13:45:43;;;;;;;12.75;9.70;;;10.70;83.70;;;;;;5026286;28;20025;-73
2022/02/03 13:48:20;;;;;;;12.68;8.90;;;10.70;83.70;;;;;;5027863;28;20037;-74
2022/02/03 13:50:55;;;;;;;11.93;8.43;;;10.60;83.70;;;;;;5025741;28;20033;-74
2022/02/03 13:53:32;;;;;;;15.00;8.98;;;10.60;83.70;;;;;;5026056;28;20029;-74
2022/02/03 14:15:43;;;;;;;11.90;8.80;;;10.60;83.70;;;;;;5030935;28;20280;-73
2022/02/03 14:26:50;;;;;;;12.07;8.57;;;10.60;83.80;;;;;;5030989;28;20034;-74
2022/02/03 14:28:54;;;;;;;12.65;9.32;;;10.60;83.80;;;;;;5030602;28;20072;-73
2022/02/03 14:31:19;;;;;;;13.30;9.68;;;10.70;83.90;;;;;;5029178;28;20034;-74
2022/02/03 14:33:45;;;;;;;12.75;9.55;;;10.60;83.80;;;;;;5030703;28;20554;-73
2022/02/03 14:36:15;;;;;;;13.00;9.43;;;10.70;83.80;;;;;;5029232;28;20041;-74
2022/02/03 14:38:47;;;;;;;12.75;9.60;;;10.60;83.80;;;;;;5030409;28;20032;-73
2022/02/03 14:41:57;;;;;;;12.88;9.85;;;10.70;83.90;;;;;;5028941;28;20067;-74
2022/02/03 14:44:00;;;;;;;13.35;10.23;;;10.60;84.00;;;;;;5019550;28;20030;-73
2022/02/03 14:46:26;;;;;;;14.88;10.15;;;10.60;83.90;;;;;;5012639;28;20034;-74
2022/02/03 14:48:52;;;;;;;12.77;10.25;;;10.60;84.00;;;;;;5012487;28;20032;-74
2022/02/03 14:51:22;;;;;;;12.45;8.93;;;10.60;83.90;;;;;;5012249;28;20513;-73
2022/02/03 14:59:08;;;;;;;12.13;8.60;;;10.60;83.80;;;;;;5049568;28;20402;-73
2022/02/03 15:01:34;;;;;;;10.85;8.70;;;10.60;83.90;;;;;;5049092;28;20407;-72
2022/02/03 15:04:01;;;;;;;12.18;8.98;;;10.60;83.90;;;;;;5031513;28;20037;-72
2022/02/03 15:06:34;;;;;;;12.50;8.98;;;10.60;83.90;;;;;;5030145;28;20033;-74
2022/02/03 15:09:19;;;;;;;16.17;8.82;;;10.70;83.70;;;;;;5031160;28;20032;-75
2022/02/03 15:14:16;;;;;;;16.85;9.02;;;10.70;84.00;;;;;;5049233;28;20028;-74
2022/02/03 15:16:42;;;;;;;18.80;8.73;;;10.70;83.40;;;;;;5047666;28;20039;-74
2022/02/03 15:19:07;;;;;;;19.27;8.57;;;10.70;83.40;;;;;;5051884;28;20037;-73
2022/02/03 15:21:33;;;;;;;16.42;8.45;;;10.70;83.40;;;;;;5029526;28;20497;-75
2022/02/03 15:23:58;;;;;;;15.70;8.73;;;10.70;83.40;;;;;;5047694;28;20090;-73
2022/02/03 15:26:24;;;;;;;15.10;9.10;;;10.70;83.60;;;;;;5030192;28;20032;-75
2022/02/03 15:28:50;;;;;;;13.43;8.57;;;10.60;83.40;;;;;;5046735;28;20095;-73
2022/02/03 15:31:16;;;;;;;13.60;8.18;;;10.70;83.60;;;;;;5031716;28;20390;-73
2022/02/03 15:33:48;;;;;;;12.65;8.93;;;10.70;83.60;;;;;;5044478;28;20347;-74
2022/02/03 15:36:14;;;;;;;16.13;8.30;;;10.70;83.60;;;;;;5016941;28;20018;-73
2022/02/03 15:38:46;;;;;;;12.13;8.38;;;10.70;83.60;;;;;;5011480;28;20025;-75
2022/02/03 15:41:21;;;;;;;;;;;10.70;83.60;;;;;;5024264;28;20116;-74
2022/02/03 15:43:48;;;;;;;12.88;7.75;;;10.60;83.50;;;;;;5031036;28;19904;-74
2022/02/03 15:46:16;;;;;;;12.38;8.00;;;10.70;83.50;;;;;;5048616;28;20086;-73
2022/02/03 15:48:56;;;;;;;14.90;8.63;;;10.70;83.40;;;;;;5031340;28;20490;-73
2022/02/03 16:01:54;;;;;;;13.10;7.70;;;10.60;83.40;;;;;;5047170;28;20932;-72
2022/02/03 16:16:15;;;;;;;12.10;7.60;;;10.60;83.50;;;;;;5048785;28;20044;-73
2022/02/03 16:17:56;;;;;;;15.88;8.68;;;10.60;83.60;;;;;;5047507;28;20109;-73
2022/02/03 16:20:27;;;;;;;12.80;8.23;;;10.60;83.60;;;;;;5047788;28;20063;-72
2022/02/03 16:23:04;;;;;;;16.27;8.55;;;10.60;83.60;;;;;;5028309;28;20025;-74
2022/02/03 16:43:04;;;;;;;46.67;10.68;;;10.60;83.80;;;;;;5027275;28;20040;-72
2022/02/03 16:50:51;;;;;;;55.88;10.50;;;10.60;83.70;;;;;;5027209;28;20064;-72
2022/02/03 16:53:08;;;;;;;38.85;10.60;;;10.60;83.70;;;;;;5027118;28;20053;-75
2022/02/03 16:55:36;;;;;;;33.50;10.00;;;10.60;83.40;;;;;;5025865;28;20065;-73
2022/02/03 16:58:07;;;;;;;34.85;10.20;;;10.60;83.50;;;;;;5026065;28;20059;-73
2022/02/03 17:00:32;;;;;;;39.08;9.95;;;10.60;83.70;;;;;;5025404;28;20108;-74
2022/02/03 17:02:59;;;;;;;33.33;10.55;;;10.60;83.60;;;;;;5009686;28;20136;-74
2022/02/03 17:05:25;;;;;;;35.15;10.63;;;10.60;83.60;;;;;;5025594;28;20034;-76
2022/02/03 17:07:51;;;;;;;36.28;10.52;;;10.60;83.70;;;;;;5027117;28;20085;-76
2022/02/03 17:10:16;;;;;;;23.50;9.95;;;10.60;83.50;;;;;;5025139;28;20136;-72
2022/02/03 17:12:42;;;;;;;20.70;10.23;;;10.60;83.60;;;;;;5026123;28;20112;-74
2022/02/03 17:15:08;;;;;;;23.63;10.82;;;10.60;83.60;;;;;;5021353;28;20049;-73
2022/02/03 17:17:33;;;;;;;22.20;9.88;;;10.60;83.70;;;;;;5028199;28;20078;-76
2022/02/03 17:19:59;;;;;;;22.73;9.85;;;10.60;83.60;;;;;;5026870;28;20029;-73
2022/02/03 17:22:30;;;;;;;22.73;9.98;;;10.60;83.70;;;;;;5044262;28;20474;-76
2022/02/03 17:25:08;;;;;;;21.70;9.40;;;10.60;83.70;;;;;;5028089;28;20633;-75
2022/02/03 17:27:42;;;;;;;18.95;9.35;;;10.60;83.60;;;;;;5046549;28;20032;-73
2022/02/03 17:45:12;;;;;;;20.10;9.65;;;10.60;83.60;;;;;;5045170;28;20395;-74
2022/02/03 18:10:41;;;;;;;16.30;10.43;;;10.60;83.70;;;;;;5044713;28;20033;-71
2022/02/03 18:34:55;;;;;;;12.32;9.93;;;10.60;83.80;;;;;;5041913;28;20942;-72
2022/02/03 18:49:22;;;;;;;13.80;10.25;;;10.60;83.90;;;;;;5048265;28;20090;-77
2022/02/03 19:12:53;;;;;;;15.88;12.20;;;10.50;83.90;;;;;;5040225;28;20040;-73
2022/02/03 19:14:52;;;;;;;14.50;11.85;;;10.60;83.90;;;;;;5048354;28;20071;-73
2022/02/03 19:21:09;;;;;;;14.85;11.75;;;10.60;83.90;;;;;;5049218;28;20401;-73
2022/02/03 20:05:47;;;;;;;16.90;13.10;;;10.50;84.20;;;;;;5039258;28;20291;-77
2022/02/03 20:08:40;;;;;;;16.83;13.38;;;10.50;84.10;;;;;;5029423;28;20111;-73
2022/02/03 20:10:59;;;;;;;17.90;13.50;;;10.50;84.10;;;;;;5046242;28;20410;-73
2022/02/03 20:13:24;;;;;;;15.55;13.13;;;10.50;84.20;;;;;;5028748;28;20033;-72
2022/02/03 20:15:50;;;;;;;15.90;13.82;;;10.60;84.20;;;;;;5028690;28;20044;-73
2022/02/03 20:18:18;;;;;;;17.77;13.88;;;10.50;84.10;;;;;;5014517;28;20545;-73
2022/02/03 20:20:44;;;;;;;16.38;13.18;;;10.50;84.10;;;;;;5028468;28;20216;-71
2022/02/03 20:23:15;;;;;;;17.40;13.80;;;10.50;84.10;;;;;;5028154;28;20044;-73
2022/02/03 20:25:43;;;;;;;;;;;10.50;84.10;;;;;;5028581;28;20032;-72
2022/02/03 20:28:09;;;;;;;16.70;13.15;;;10.50;84.20;;;;;;5028438;28;19948;-72
2022/02/03 20:30:36;;;;;;;17.10;14.20;;;10.50;84.20;;;;;;5046283;28;20031;-72
2022/02/03 20:33:02;;;;;;;17.13;14.95;;;10.50;84.20;;;;;;5045906;28;20294;-72
2022/02/03 20:35:27;;;;;;;16.55;13.60;;;10.50;84.20;;;;;;5046119;28;20504;-71
2022/02/03 20:37:53;;;;;;;17.25;13.43;;;10.50;84.20;;;;;;5028244;28;20040;-72
2022/02/03 20:40:19;;;;;;;16.92;14.05;;;10.50;84.20;;;;;;5029149;28;20025;-73
2022/02/03 20:42:45;;;;;;;17.05;13.95;;;10.50;84.20;;;;;;5046514;28;20478;-72
2022/02/03 20:45:11;;;;;;;16.70;14.27;;;10.50;84.30;;;;;;5046285;28;20083;-71
2022/02/03 20:47:37;;;;;;;17.40;14.40;;;10.50;84.20;;;;;;5022974;28;20025;-73
2022/02/03 20:50:08;;;;;;;16.42;13.90;;;10.50;84.20;;;;;;5017014;28;20044;-72
2022/02/03 20:52:34;;;;;;;19.27;14.98;;;10.50;84.40;;;;;;5023806;28;20029;-75
2022/02/03 20:55:00;;;;;;;18.42;14.45;;;10.50;84.30;;;;;;5024899;28;20517;-72
2022/02/03 20:57:26;;;;;;;17.35;14.23;;;10.50;84.30;;;;;;5045494;28;20025;-74
2022/02/03 21:03:20;;;;;;;17.42;14.55;;;10.50;84.30;;;;;;5051713;28;20083;-74
2022/02/03 21:05:46;;;;;;;18.52;15.00;;;10.50;84.20;;;;;;5046414;28;20044;-74
2022/02/03 21:08:12;;;;;;;18.08;14.48;;;10.50;84.20;;;;;;5068580;28;20039;-74
2022/02/03 21:10:38;;;;;;;17.45;15.13;;;10.50;84.30;;;;;;5053859;28;20015;-74
2022/02/03 21:13:03;;;;;;;18.83;15.73;;;10.50;84.30;;;;;;5047149;28;20024;-73
2022/02/03 21:15:39;;;;;;;18.27;15.30;;;10.50;84.30;;;;;;5049877;28;20469;-74
2022/02/03 21:18:09;;;;;;;17.45;14.95;;;10.50;84.40;;;;;;5027283;28;20418;-73
2022/02/03 21:20:35;;;;;;;18.48;15.18;;;10.50;84.40;;;;;;5066883;28;20020;-73
2022/02/03 21:23:03;;;;;;;18.25;14.98;;;10.50;84.40;;;;;;5066545;28;20020;-74
2022/02/03 21:25:39;;;;;;;17.13;15.02;;;10.50;84.40;;;;;;5085676;28;20024;-74
2022/02/03 21:28:11;;;;;;;17.95;15.38;;;10.50;84.40;;;;;;5067815;28;20031;-75
2022/02/03 21:30:38;;;;;;;18.65;15.68;;;10.50;84.30;;;;;;5066941;28;20031;-74
2022/02/03 21:33:08;;;;;;;17.30;14.80;;;10.50;84.40;;;;;;5049013;28;20039;-74
2022/02/03 21:35:34;;;;;;;18.65;15.05;;;10.50;84.50;;;;;;5049469;28;20039;-74
2022/02/03 21:37:59;;;;;;;17.35;14.35;;;10.50;84.40;;;;;;5048907;28;20020;-73
2022/02/03 21:40:31;;;;;;;17.85;15.68;;;10.50;84.40;;;;;;5050276;28;20513;-72
2022/02/03 21:42:57;;;;;;;17.75;15.20;;;10.50;84.40;;;;;;5066117;28;20092;-75
2022/02/03 21:45:22;;;;;;;17.92;15.70;;;10.50;84.40;;;;;;5051479;28;20052;-76
2022/02/03 21:47:50;;;;;;;17.98;15.23;;;10.50;84.40;;;;;;5033572;28;20378;-75
2022/02/03 21:50:16;;;;;;;18.05;15.82;;;10.50;84.40;;;;;;5045754;28;20039;-75
2022/02/03 21:52:52;;;;;;;17.90;15.45;;;10.50;84.40;;;;;;5053516;28;20024;-75
2022/02/03 21:55:18;;;;;;;18.45;15.60;;;10.50;84.40;;;;;;5053542;28;20091;-75
2022/02/03 21:57:47;;;;;;;17.88;15.93;;;10.50;84.40;;;;;;5053438;28;20071;-75
2022/02/03 22:00:15;;;;;;;18.25;15.25;;;10.50;84.40;;;;;;5071095;28;20028;-76
2022/02/03 22:02:42;;;;;;;18.65;15.45;;;10.50;84.40;;;;;;5053460;28;20090;-74
2022/02/03 22:05:11;;;;;;;17.77;15.63;;;10.50;84.50;;;;;;5044823;28;20507;-76
2022/02/03 22:07:37;;;;;;;20.95;15.60;;;10.50;84.40;;;;;;5045579;28;20032;-76
2022/02/03 22:10:03;;;;;;;17.85;15.75;;;10.50;84.40;;;;;;5052791;28;20024;-76
2022/02/03 22:12:29;;;;;;;18.67;15.45;;;10.50;84.50;;;;;;5034436;28;20029;-74
2022/02/03 22:14:54;;;;;;;19.45;16.27;;;10.50;84.50;;;;;;5050961;28;20032;-76
2022/02/03 22:17:20;;;;;;;19.33;16.55;;;10.50;84.50;;;;;;5036443;28;20017;-75
2022/02/03 22:19:51;;;;;;;17.45;15.40;;;10.50;84.50;;;;;;5036723;28;20063;-76
2022/02/03 22:27:40;;;;;;;20.02;16.15;;;10.50;84.50;;;;;;5068334;28;20107;-75
2022/02/03 22:44:07;;;;;;;18.17;15.50;;;10.50;84.70;;;;;;5067095;28;20064;-75
2022/02/03 22:49:04;;;;;;;18.27;15.35;;;10.50;84.60;;;;;;5064625;28;20448;-75
2022/02/03 22:51:31;;;;;;;19.35;15.82;;;10.50;84.60;;;;;;5043195;28;20029;-75
2022/02/03 22:53:57;;;;;;;19.65;15.27;;;10.50;84.60;;;;;;5054708;28;20109;-74
2022/02/03 22:56:22;;;;;;;17.92;15.23;;;10.50;84.60;;;;;;5074849;28;20111;-75
2022/02/03 23:01:25;;;;;;;18.52;16.13;;;10.50;84.60;;;;;;5061540;28;20021;-75
2022/02/03 23:03:51;;;;;;;19.88;16.20;;;10.50;84.70;;;;;;5036990;28;20496;-75
2022/02/03 23:06:18;;;;;;;19.00;16.40;;;10.50;84.70;;;;;;5054538;28;20029;-75